Liberta — V2CM3 — position and weather

sailwx.info

Track history (hours):
 
Tides and Currents Weather Stations Pressure Air Temp Water Temp Dewpoint Dewpoint Depression Visibility Wind Speed Wind Dir Waves Ship Positions

Liberta

Last reported at 2015-Feb-28 00:22 UTC. Time now 2015-Feb-28 00:44 UTC.
Position N 44°30' E 037°44'.

Length 138 m; draft 5.2 m.

Type: Cargo ship. MMSI: 305043000.

Date/timePositionNaut miles runAvg speedWind from/ knotsBaromVisibWave heightAir tempDewpointWater temp
2015-Feb-28 00:22N 44°30' E 037°44'1 1.7
2015-Feb-27 23:33N 44°30' E 037°45'4 4.2
2015-Feb-27 22:33N 44°29' E 037°40'7211.9
2015-Feb-27 16:28N 43°55' E 036°11'1211.8
2015-Feb-27 15:29N 43°50' E 035°56'1111.8
2015-Feb-27 14:33N 43°44' E 035°43'1411.6
2015-Feb-27 13:20N 43°38' E 035°26'1012.0
2015-Feb-27 12:33N 43°34' E 035°14'3812.0
2015-Feb-27 09:23N 43°16' E 034°27'24312.2
2015-Feb-26 13:24N 41°25' E 029°35'1012.4
2015-Feb-26 12:33N 41°20' E 029°23'2510.6
2015-Feb-26 10:09N 41°01' E 028°60'5 8.3
2015-Feb-26 09:33N 40°56' E 028°58'6 5.9
2015-Feb-26 08:32N 40°51' E 028°55'4 3.7
2015-Feb-26 07:30N 40°50' E 028°50'1 1.1
2015-Feb-26 06:30N 40°48' E 028°50'1 0.6
2015-Feb-26 05:33N 40°48' E 028°50'0 0.5
2015-Feb-26 04:32N 40°48' E 028°51'1 0.7
2015-Feb-26 03:33N 40°47' E 028°50'1 0.9
2015-Feb-26 02:33N 40°46' E 028°50'1 1.0
2015-Feb-26 01:29N 40°46' E 028°48'1 1.2
2015-Feb-26 00:33N 40°45' E 028°47'2 2.4
2015-Feb-25 23:32N 40°47' E 028°49'2 2.5
2015-Feb-25 22:33N 40°49' E 028°50'1 1.2
2015-Feb-25 21:33N 40°48' E 028°48'1 0.9
2015-Feb-25 20:32N 40°48' E 028°48'3 2.6
2015-Feb-25 19:27N 40°45' E 028°46'20 8.7
2015-Feb-25 17:07N 40°26' E 028°56'  
2015-Feb-19 15:27N 40°46' E 029°32'0 0.0
2015-Feb-19 14:09N 40°46' E 029°32'0 0.0
2015-Feb-19 13:03N 40°46' E 029°32'0 0.0
2015-Feb-19 12:09N 40°46' E 029°32'0 0.0
2015-Feb-19 11:33N 40°46' E 029°32'0 0.0
2015-Feb-19 09:15N 40°46' E 029°32'0 0.0
2015-Feb-19 08:33N 40°46' E 029°32'0 0.0
2015-Feb-19 07:33N 40°46' E 029°32'0 0.0
2015-Feb-19 05:33N 40°46' E 029°32'0 0.0
2015-Feb-19 04:03N 40°46' E 029°32'0 0.0
2015-Feb-19 03:27N 40°46' E 029°32'0 0.0
2015-Feb-19 02:33N 40°46' E 029°32'0 0.0
2015-Feb-19 01:27N 40°46' E 029°32'0 0.0
2015-Feb-19 00:33N 40°46' E 029°32'0 0.0
2015-Feb-18 23:15N 40°46' E 029°32'0 0.0
2015-Feb-18 22:33N 40°46' E 029°32'0 0.0
2015-Feb-18 21:33N 40°46' E 029°32'0 0.0
2015-Feb-18 20:15N 40°46' E 029°32'0 0.0
2015-Feb-18 16:33N 40°46' E 029°32'0 0.0
2015-Feb-18 15:27N 40°46' E 029°32'0 0.0
2015-Feb-18 13:21N 40°46' E 029°32'0 0.0
2015-Feb-18 12:33N 40°46' E 029°32'0 0.0
2015-Feb-18 11:33N 40°46' E 029°32'  
Track history (hours):
 
Tides and Currents Weather Stations Pressure Air Temp Water Temp Dewpoint Dewpoint Depression Visibility Wind Speed Wind Dir Waves Ship Positions

Liberta

Last reported at 2015-Feb-28 00:22 UTC. Time now 2015-Feb-28 00:44 UTC.
Position N 44°30' E 037°44'.

Length 138 m; draft 5.2 m.

Type: Cargo ship. MMSI: 305043000.

Date/timePositionNaut miles runAvg speedWind from/ knotsBaromVisibWave heightAir tempDewpointWater temp
2015-Feb-28 00:22N 44°30' E 037°44'1 1.7
2015-Feb-27 23:33N 44°30' E 037°45'4 4.2
2015-Feb-27 22:33N 44°29' E 037°40'7211.9
2015-Feb-27 16:28N 43°55' E 036°11'1211.8
2015-Feb-27 15:29N 43°50' E 035°56'1111.8
2015-Feb-27 14:33N 43°44' E 035°43'1411.6
2015-Feb-27 13:20N 43°38' E 035°26'1012.0
2015-Feb-27 12:33N 43°34' E 035°14'3812.0
2015-Feb-27 09:23N 43°16' E 034°27'24312.2
2015-Feb-26 13:24N 41°25' E 029°35'1012.4
2015-Feb-26 12:33N 41°20' E 029°23'2510.6
2015-Feb-26 10:09N 41°01' E 028°60'5 8.3
2015-Feb-26 09:33N 40°56' E 028°58'6 5.9
2015-Feb-26 08:32N 40°51' E 028°55'4 3.7
2015-Feb-26 07:30N 40°50' E 028°50'1 1.1
2015-Feb-26 06:30N 40°48' E 028°50'1 0.6
2015-Feb-26 05:33N 40°48' E 028°50'0 0.5
2015-Feb-26 04:32N 40°48' E 028°51'1 0.7
2015-Feb-26 03:33N 40°47' E 028°50'1 0.9
2015-Feb-26 02:33N 40°46' E 028°50'1 1.0
2015-Feb-26 01:29N 40°46' E 028°48'1 1.2
2015-Feb-26 00:33N 40°45' E 028°47'2 2.4
2015-Feb-25 23:32N 40°47' E 028°49'2 2.5
2015-Feb-25 22:33N 40°49' E 028°50'1 1.2
2015-Feb-25 21:33N 40°48' E 028°48'1 0.9
2015-Feb-25 20:32N 40°48' E 028°48'3 2.6
2015-Feb-25 19:27N 40°45' E 028°46'20 8.7
2015-Feb-25 17:07N 40°26' E 028°56'  
2015-Feb-19 15:27N 40°46' E 029°32'0 0.0
2015-Feb-19 14:09N 40°46' E 029°32'0 0.0
2015-Feb-19 13:03N 40°46' E 029°32'0 0.0
2015-Feb-19 12:09N 40°46' E 029°32'0 0.0
2015-Feb-19 11:33N 40°46' E 029°32'0 0.0
2015-Feb-19 09:15N 40°46' E 029°32'0 0.0
2015-Feb-19 08:33N 40°46' E 029°32'0 0.0
2015-Feb-19 07:33N 40°46' E 029°32'0 0.0
2015-Feb-19 05:33N 40°46' E 029°32'0 0.0
2015-Feb-19 04:03N 40°46' E 029°32'0 0.0
2015-Feb-19 03:27N 40°46' E 029°32'0 0.0
2015-Feb-19 02:33N 40°46' E 029°32'0 0.0
2015-Feb-19 01:27N 40°46' E 029°32'0 0.0
2015-Feb-19 00:33N 40°46' E 029°32'0 0.0
2015-Feb-18 23:15N 40°46' E 029°32'0 0.0
2015-Feb-18 22:33N 40°46' E 029°32'0 0.0
2015-Feb-18 21:33N 40°46' E 029°32'0 0.0
2015-Feb-18 20:15N 40°46' E 029°32'0 0.0
2015-Feb-18 16:33N 40°46' E 029°32'0 0.0
2015-Feb-18 15:27N 40°46' E 029°32'0 0.0
2015-Feb-18 13:21N 40°46' E 029°32'0 0.0
2015-Feb-18 12:33N 40°46' E 029°32'0 0.0
2015-Feb-18 11:33N 40°46' E 029°32'  

Dump ship's entire track history